Terminal Aerodrome Forecast
Issued by NWS

Home | Current Version | Previous Version | Text Only | Print | Product List | Glossary On
Versions: 1 2 3 4 5 6 7 8 9 10 11 12 13
000
FTUS46 KSGX 190520
TAFONT
TAF
KONT 190520Z 1906/2012 VRB05KT P6SM SKC
     FM191200 VRB03KT 2SM BR SCT005
     FM191500 VRB03KT 6SM HZ FEW008
     FM192100 26011G18KT P6SM SKC
     FM200500 VRB05KT 6SM BR FEW008
     FM201100 VRB03KT 5SM BR BKN007=

USA.gov is the U.S. government's official web portal to all federal, state and local government web resources and services.